Time;durP1;ratioP1;P1;durP2;ratioP2;P2;SDS_P1;SDS_P2;PMS_P1;PMS_P2;Temp;Humidity;BMP_temperature;BMP_pressure;BME280_temperature;BME280_humidity;BME280_pressure;Samples;Min_cycle;Max_cycle;Signal;HPM_P1;HPM_P2
2023/02/13 00:00:57;;;;;;;4.70;2.70;;;;;;;9.17;100.00;102285.19;2090422;28;20053;-79
2023/02/13 00:02:19;;;;;;;6.75;3.22;;;;;;;9.15;100.00;102285.09;2097868;28;20055;-79
2023/02/13 00:03:41;;;;;;;5.65;2.40;;;;;;;9.13;100.00;102278.84;2084373;28;20049;-79
2023/02/13 00:05:02;;;;;;;4.55;3.00;;;;;;;9.13;100.00;102284.13;2084461;28;20569;-79
2023/02/13 00:06:25;;;;;;;4.85;2.80;;;;;;;9.13;100.00;102284.13;2078676;28;20045;-79
2023/02/13 00:07:47;;;;;;;4.10;2.40;;;;;;;9.14;100.00;102274.50;2083682;28;20464;-80
2023/02/13 00:09:10;;;;;;;6.47;3.08;;;;;;;9.12;100.00;102286.72;2087038;28;20068;-79
2023/02/13 00:10:31;;;;;;;3.35;2.50;;;;;;;9.11;100.00;102279.66;2086851;28;20504;-79
2023/02/13 00:11:53;;;;;;;6.22;2.85;;;;;;;9.10;100.00;102286.63;2085782;28;20045;-79
2023/02/13 00:13:15;;;;;;;8.13;2.90;;;;;;;9.10;100.00;102278.72;2089872;28;20052;-78
2023/02/13 00:14:38;;;;;;;4.30;2.67;;;;;;;9.10;100.00;102283.09;2097970;28;20045;-79
2023/02/13 00:16:02;;;;;;;6.25;2.58;;;;;;;9.10;100.00;102275.19;2091770;28;20053;-79
2023/02/13 00:17:24;;;;;;;5.43;2.13;;;;;;;9.11;100.00;102279.66;2086255;28;20103;-80
2023/02/13 00:18:47;;;;;;;6.53;2.78;;;;;;;9.10;100.00;102284.00;2085747;28;20036;-79
2023/02/13 00:20:10;;;;;;;5.05;2.03;;;;;;;9.11;100.00;102279.66;2086747;28;20105;-78
2023/02/13 00:21:33;;;;;;;4.75;2.30;;;;;;;9.09;100.00;102284.84;2086690;28;20045;-79
2023/02/13 00:22:58;;;;;;;4.88;2.20;;;;;;;9.08;100.00;102279.47;2088549;28;20048;-79
2023/02/13 00:24:20;;;;;;;4.97;2.50;;;;;;;9.08;100.00;102280.38;2081086;28;20041;-78
2023/02/13 00:25:41;;;;;;;6.65;2.40;;;;;;;9.05;100.00;102277.63;2086611;28;20145;-79
2023/02/13 00:27:04;;;;;;;5.30;2.20;;;;;;;9.03;100.00;102281.00;2086920;28;20049;-79
2023/02/13 00:28:26;;;;;;;5.20;2.47;;;;;;;9.01;100.00;102282.66;2086740;28;20533;-79
2023/02/13 00:29:48;;;;;;;4.45;1.92;;;;;;;9.00;100.00;102278.22;2097925;28;20432;-79
2023/02/13 00:31:12;;;;;;;4.75;2.42;;;;;;;8.99;100.00;102289.63;2092136;28;20041;-78
2023/02/13 00:32:34;;;;;;;4.45;2.00;;;;;;;8.95;100.00;102283.28;2086860;28;20033;-79
2023/02/13 00:33:55;;;;;;;5.03;2.42;;;;;;;8.94;100.00;102280.56;2077847;28;20073;-79
2023/02/13 00:35:18;;;;;;;5.45;2.10;;;;;;;8.91;100.00;102284.00;2081954;28;20044;-80
2023/02/13 00:36:39;;;;;;;4.38;1.90;;;;;;;8.92;100.00;102279.63;2103406;28;20059;-79
2023/02/13 00:38:03;;;;;;;4.75;2.50;;;;;;;8.91;100.00;102280.44;2084083;28;20561;-79
2023/02/13 00:39:24;;;;;;;5.60;2.55;;;;;;;8.92;100.00;102277.91;2084366;28;20033;-79
2023/02/13 00:40:46;;;;;;;6.53;2.63;;;;;;;8.94;100.00;102276.22;2095000;28;20074;-79
2023/02/13 00:42:07;;;;;;;4.93;2.70;;;;;;;8.98;100.00;102282.53;2089483;28;20083;-79
2023/02/13 00:43:30;;;;;;;7.30;2.60;;;;;;;9.00;100.00;102275.59;2078567;28;20041;-80
2023/02/13 00:44:52;;;;;;;3.95;2.15;;;;;;;9.05;100.00;102274.09;2083665;28;20144;-79
2023/02/13 00:46:15;;;;;;;6.07;2.53;;;;;;;9.10;100.00;102270.84;2086860;28;20049;-80
2023/02/13 00:47:38;;;;;;;5.63;2.40;;;;;;;9.15;100.00;102271.03;2085996;28;20049;-79
2023/02/13 00:48:59;;;;;;;4.88;2.38;;;;;;;9.18;100.00;102280.00;2103248;28;20044;-80
2023/02/13 00:50:24;;;;;;;8.45;3.20;;;;;;;9.23;100.00;102274.94;2092004;28;20041;-80
2023/02/13 00:51:47;;;;;;;7.18;4.10;;;;;;;9.27;100.00;102276.84;2103537;28;20043;-80
2023/02/13 00:53:10;;;;;;;5.95;2.97;;;;;;;9.30;100.00;102279.66;2083365;28;20054;-79
2023/02/13 00:54:32;;;;;;;5.38;2.47;;;;;;;9.31;100.00;102276.19;2079197;28;20042;-79
2023/02/13 00:55:53;;;;;;;6.13;2.42;;;;;;;9.32;100.00;102272.69;2087007;28;20095;-80
2023/02/13 00:57:15;;;;;;;8.15;2.85;;;;;;;9.29;100.00;102269.94;2077435;28;20680;-80
2023/02/13 00:58:38;;;;;;;8.32;2.85;;;;;;;9.28;100.00;102265.47;2075074;28;20053;-79
2023/02/13 00:59:59;;;;;;;5.90;2.60;;;;;;;9.32;100.00;102269.19;2083631;28;20170;-80
2023/02/13 01:01:22;;;;;;;7.40;3.08;;;;;;;9.39;100.00;102271.22;2077605;28;20523;-79
2023/02/13 01:02:43;;;;;;;3.85;2.17;;;;;;;9.46;100.00;102263.66;2083030;28;20531;-79
2023/02/13 01:04:06;;;;;;;5.85;2.45;;;;;;;9.50;100.00;102268.25;2103231;28;20507;-80
2023/02/13 01:05:27;;;;;;;5.22;2.67;;;;;;;9.56;100.00;102273.78;2090785;28;20049;-79
2023/02/13 01:06:50;;;;;;;5.93;2.63;;;;;;;9.59;100.00;102273.91;2086694;28;20582;-79
2023/02/13 01:08:14;;;;;;;6.55;2.67;;;;;;;9.61;100.00;102268.72;2080694;28;20041;-79
2023/02/13 01:09:36;;;;;;;8.65;2.60;;;;;;;9.59;100.00;102271.28;2084322;28;20480;-79
2023/02/13 01:10:58;;;;;;;4.95;2.45;;;;;;;9.56;100.00;102268.53;2078333;28;20577;-79
2023/02/13 01:12:20;;;;;;;5.70;2.60;;;;;;;9.54;100.00;102267.53;2080533;28;20107;-79
2023/02/13 01:13:41;;;;;;;6.13;2.83;;;;;;;9.57;100.00;102270.34;2087051;28;20444;-79
2023/02/13 01:15:04;;;;;;;6.85;2.22;;;;;;;9.59;100.00;102273.91;2078393;28;20053;-79
2023/02/13 01:16:27;;;;;;;4.53;2.35;;;;;;;9.58;100.00;102274.75;2083673;28;20116;-79
2023/02/13 01:17:48;;;;;;;8.15;2.80;;;;;;;9.58;100.00;102272.09;2077811;28;20046;-79
2023/02/13 01:19:10;;;;;;;7.72;2.42;;;;;;;9.56;100.00;102276.44;2082327;28;20064;-80
2023/02/13 01:20:33;;;;;;;6.63;2.75;;;;;;;9.53;100.00;102271.00;2096031;28;20087;-79
2023/02/13 01:21:55;;;;;;;5.00;1.95;;;;;;;9.51;100.00;102264.78;2083458;28;20064;-79
2023/02/13 01:23:18;;;;;;;5.65;3.08;;;;;;;9.51;100.00;102270.06;2088974;28;20117;-79
2023/02/13 01:24:40;;;;;;;4.28;2.10;;;;;;;9.51;100.00;102269.16;2077068;28;21010;-79
2023/02/13 01:26:05;;;;;;;7.47;3.03;;;;;;;9.50;100.00;102270.88;2094888;28;20041;-79
2023/02/13 01:27:28;;;;;;;5.22;2.38;;;;;;;9.50;100.00;102273.53;2090074;28;20045;-79
2023/02/13 01:28:53;;;;;;;8.10;2.92;;;;;;;9.48;100.00;102272.53;2086526;28;20472;-79
2023/02/13 01:30:18;;;;;;;5.30;2.30;;;;;;;9.45;100.00;102274.16;2084535;28;20036;-79
2023/02/13 01:31:41;;;;;;;5.57;2.15;;;;;;;9.48;100.00;102275.19;2086848;28;20056;-79
2023/02/13 01:33:02;;;;;;;5.45;2.70;;;;;;;9.48;100.00;102269.00;2086333;28;20053;-80
2023/02/13 01:34:24;;;;;;;5.32;2.28;;;;;;;9.48;100.00;102269.00;2077515;28;20052;-79
2023/02/13 01:35:47;;;;;;;6.68;2.80;;;;;;;9.47;100.00;102265.47;2099675;28;20543;-78
2023/02/13 01:37:09;;;;;;;6.13;2.72;;;;;;;9.49;100.00;102271.72;2091066;28;20049;-79
2023/02/13 01:38:31;;;;;;;7.10;2.80;;;;;;;9.53;100.00;102270.09;2086518;28;20045;-79
2023/02/13 01:39:55;;;;;;;5.60;2.42;;;;;;;9.59;100.00;102268.63;2085202;28;20098;-79
2023/02/13 01:41:17;;;;;;;5.85;2.28;;;;;;;9.59;100.00;102266.00;2088018;28;20302;-79
2023/02/13 01:42:39;;;;;;;8.68;3.15;;;;;;;9.59;100.00;102265.09;2088415;28;20036;-79
2023/02/13 01:44:02;;;;;;;5.03;3.00;;;;;;;9.59;100.00;102263.38;2085686;28;20088;-79
2023/02/13 01:45:26;;;;;;;8.63;2.95;;;;;;;9.62;100.00;102259.97;2085463;28;20052;-79
2023/02/13 01:46:48;;;;;;;10.13;3.13;;;;;;;9.65;100.00;102265.34;2101887;28;20569;-79
2023/02/13 01:48:16;;;;;;;7.15;2.95;;;;;;;9.70;100.00;102271.75;2090791;28;20532;-80
2023/02/13 01:49:39;;;;;;;6.25;3.33;;;;;;;9.74;100.00;102271.03;2071956;28;20050;-79
2023/02/13 01:51:05;;;;;;;8.93;3.17;;;;;;;9.79;100.00;102271.22;2085811;28;20151;-79
2023/02/13 01:52:27;;;;;;;6.85;2.92;;;;;;;9.79;100.00;102266.88;2086846;28;20102;-79
2023/02/13 01:53:58;;;;;;;5.50;2.60;;;;;;;9.84;100.00;102259.16;2080227;28;20137;-79
2023/02/13 01:55:20;;;;;;;7.97;2.83;;;;;;;9.86;100.00;102258.38;2101933;28;20048;-79
2023/02/13 01:56:46;;;;;;;6.70;3.00;;;;;;;9.90;100.00;102262.06;2082672;28;20049;-80
2023/02/13 01:58:11;;;;;;;8.75;3.53;;;;;;;9.90;100.00;102264.69;2076250;28;20043;-79
2023/02/13 01:59:42;;;;;;;8.25;3.40;;;;;;;9.89;100.00;102269.06;2093746;28;20204;-79
2023/02/13 02:01:07;;;;;;;9.18;3.25;;;;;;;9.87;100.00;102270.72;2079952;28;20517;-79
2023/02/13 02:02:34;;;;;;;6.78;3.50;;;;;;;9.87;100.00;102267.19;2083926;28;20071;-80
2023/02/13 02:03:59;;;;;;;6.63;2.72;;;;;;;9.85;100.00;102268.84;2078323;28;20513;-80
2023/02/13 02:05:29;;;;;;;5.78;2.85;;;;;;;9.88;100.00;102269.00;2072507;28;20038;-80
2023/02/13 02:06:55;;;;;;;6.57;3.10;;;;;;;9.92;100.00;102268.28;2076104;28;20056;-79
2023/02/13 02:08:21;;;;;;;10.18;3.55;;;;;;;9.92;100.00;102266.56;2078094;28;20183;-79
2023/02/13 02:09:52;;;;;;;7.10;2.80;;;;;;;9.90;100.00;102262.97;2092322;28;20139;-79
2023/02/13 02:11:19;;;;;;;5.70;3.30;;;;;;;9.86;100.00;102265.38;2098705;28;20051;-79
2023/02/13 02:12:48;;;;;;;6.13;3.15;;;;;;;9.81;100.00;102267.84;2080373;28;20556;-79
2023/02/13 02:14:12;;;;;;;6.90;2.72;;;;;;;9.77;100.00;102262.38;2101060;28;20040;-79
2023/02/13 02:15:36;;;;;;;6.28;3.00;;;;;;;9.76;100.00;102268.47;2082716;28;20049;-79
2023/02/13 02:16:58;;;;;;;7.35;2.97;;;;;;;9.75;100.00;102266.69;2074453;28;20061;-80
2023/02/13 02:18:22;;;;;;;6.03;3.20;;;;;;;9.72;100.00;102261.25;2077636;28;20485;-79
2023/02/13 02:19:54;;;;;;;6.07;2.78;;;;;;;9.68;100.00;102267.25;2077001;28;20092;-79
2023/02/13 02:21:45;;;;;;;7.00;3.10;;;;;;;9.60;100.00;102266.91;2087226;28;20099;-78
2023/02/13 02:23:39;;;;;;;6.03;2.78;;;;;;;9.52;100.00;102273.56;2091130;28;20115;-79
2023/02/13 02:25:35;;;;;;;8.25;3.00;;;;;;;9.47;100.00;102262.84;2080034;28;20057;-78
2023/02/13 02:27:14;;;;;;;16.35;3.08;;;;;;;9.44;100.00;102267.09;2079492;28;20061;-79
2023/02/13 02:29:15;;;;;;;6.60;2.72;;;;;;;9.42;100.00;102261.72;2105473;28;20079;-79
2023/02/13 02:31:11;;;;;;;5.35;3.05;;;;;;;9.41;100.00;102270.47;2077929;28;20413;-78
2023/02/13 02:32:56;;;;;;;7.65;2.92;;;;;;;9.42;100.00;102269.63;2066956;28;20063;-78
2023/02/13 02:34:26;;;;;;;6.25;2.90;;;;;;;9.45;100.00;102266.25;2096114;28;20148;-79
2023/02/13 02:35:58;;;;;;;6.35;3.00;;;;;;;9.49;100.00;102273.44;2080328;28;20045;-79
2023/02/13 02:37:35;;;;;;;7.28;3.10;;;;;;;9.48;100.00;102275.19;2094144;28;20052;-79
2023/02/13 02:39:06;;;;;;;6.32;2.97;;;;;;;9.50;100.00;102268.25;2080604;28;20034;-79
2023/02/13 02:40:37;;;;;;;7.35;2.83;;;;;;;9.51;100.00;102267.44;2102359;28;20068;-79
2023/02/13 02:42:12;;;;;;;5.72;2.95;;;;;;;9.52;100.00;102273.56;2081694;28;20156;-80
2023/02/13 02:43:50;;;;;;;7.32;3.15;;;;;;;9.51;100.00;102271.78;2086613;28;20037;-79
2023/02/13 02:45:23;;;;;;;8.02;3.30;;;;;;;9.48;100.00;102269.91;2088774;28;20045;-79
2023/02/13 02:50:52;;;;;;;9.27;3.00;;;;;;;9.55;100.00;102268.44;2080230;28;20049;-79
2023/02/13 02:52:42;;;;;;;7.40;3.35;;;;;;;9.55;100.00;102271.09;2095728;28;20095;-79
2023/02/13 02:55:54;;;;;;;7.43;3.08;;;;;;;9.57;100.00;102266.78;2080205;28;20049;-79
2023/02/13 02:57:24;;;;;;;7.72;3.25;;;;;;;9.60;100.00;102275.72;2075750;28;20059;-79
2023/02/13 03:07:27;;;;;;;7.93;3.50;;;;;;;9.51;100.00;102277.97;2071620;28;20042;-79
2023/02/13 03:14:03;;;;;;;7.75;3.60;;;;;;;9.73;100.00;102279.78;2080095;28;20060;-78
2023/02/13 03:15:27;;;;;;;8.23;3.80;;;;;;;9.82;100.00;102281.94;2080085;28;20053;-79
2023/02/13 03:22:22;;;;;;;8.50;3.38;;;;;;;9.85;100.00;102275.03;2079620;28;19925;-79
2023/02/13 03:23:55;;;;;;;8.45;3.90;;;;;;;9.89;100.00;102284.00;2079894;28;20077;-79
2023/02/13 03:25:29;;;;;;;7.70;3.30;;;;;;;9.91;100.00;102285.84;2095549;28;20056;-79
2023/02/13 03:27:04;;;;;;;7.70;3.78;;;;;;;9.92;100.00;102281.47;2080887;28;20046;-78
2023/02/13 03:30:23;;;;;;;8.75;3.22;;;;;;;9.92;100.00;102287.66;2079810;28;20497;-78
2023/02/13 03:32:00;;;;;;;8.32;3.10;;;;;;;9.96;100.00;102286.06;2080107;28;20092;-78
2023/02/13 03:33:39;;;;;;;7.53;3.30;;;;;;;9.98;100.00;102294.91;2086268;28;20058;-78
2023/02/13 03:38:48;;;;;;;9.75;3.67;;;;;;;9.98;100.00;102301.09;2087969;28;20052;-79
2023/02/13 03:40:17;;;;;;;6.88;3.30;;;;;;;10.00;100.00;102307.34;2086428;28;20049;-78
2023/02/13 03:41:42;;;;;;;7.15;3.28;;;;;;;10.01;100.00;102305.63;2088480;28;20052;-79
2023/02/13 03:43:11;;;;;;;8.70;3.70;;;;;;;10.00;100.00;102303.81;2079709;28;20099;-80
2023/02/13 03:44:38;;;;;;;6.80;3.10;;;;;;;9.98;100.00;102308.09;2078231;28;20045;-79
2023/02/13 03:46:02;;;;;;;7.63;3.03;;;;;;;9.97;100.00;102303.69;2102925;28;20420;-79
2023/02/13 03:47:24;;;;;;;9.25;3.88;;;;;;;10.02;100.00;102314.44;2090728;28;20103;-78
2023/02/13 03:50:27;;;;;;;8.63;3.28;;;;;;;10.09;100.00;102311.22;2087934;28;20033;-80
2023/02/13 03:51:56;;;;;;;8.10;3.90;;;;;;;10.11;100.00;102318.34;2087780;28;20136;-79
2023/02/13 03:53:19;;;;;;;11.27;3.92;;;;;;;10.12;100.00;102316.63;2086022;28;20045;-79
2023/02/13 03:59:56;;;;;;;7.38;3.67;;;;;;;9.99;100.00;102326.66;2086912;28;20055;-78
2023/02/13 04:01:25;;;;;;;8.63;3.67;;;;;;;9.97;100.00;102316.88;2094083;28;20392;-78
2023/02/13 04:02:56;;;;;;;10.32;3.70;;;;;;;9.97;100.00;102328.34;2089635;28;20041;-79
2023/02/13 04:04:24;;;;;;;5.68;3.50;;;;;;;9.96;100.00;102325.63;2086635;28;20049;-79
2023/02/13 04:05:50;;;;;;;9.82;4.00;;;;;;;9.93;100.00;102325.47;2086237;28;20460;-79
2023/02/13 04:07:29;;;;;;;9.93;3.85;;;;;;;9.89;100.00;102328.84;2102402;28;20105;-79
2023/02/13 04:08:51;;;;;;;8.55;3.30;;;;;;;9.83;100.00;102332.13;2089628;28;20072;-79
2023/02/13 04:10:15;;;;;;;8.75;4.00;;;;;;;9.81;100.00;102324.97;2097691;28;20405;-78
2023/02/13 04:11:43;;;;;;;7.50;3.40;;;;;;;9.77;100.00;102334.47;2089509;28;20095;-79
2023/02/13 04:13:12;;;;;;;5.47;3.25;;;;;;;9.75;100.00;102322.06;2104068;28;20342;-79
2023/02/13 04:14:38;;;;;;;6.55;2.90;;;;;;;9.72;100.00;102332.44;2083168;28;20041;-80
2023/02/13 04:16:06;;;;;;;7.75;3.15;;;;;;;9.70;100.00;102332.41;2085488;28;20052;-79
2023/02/13 04:17:33;;;;;;;6.05;3.30;;;;;;;9.68;100.00;102334.06;2072953;28;20080;-79
2023/02/13 04:18:57;;;;;;;8.50;3.70;;;;;;;9.64;100.00;102334.78;2078663;28;20045;-79
2023/02/13 04:20:19;;;;;;;9.18;3.55;;;;;;;9.62;100.00;102335.53;2086626;28;20134;-79
2023/02/13 04:21:42;;;;;;;7.45;3.17;;;;;;;9.62;100.00;102331.16;2079054;28;20525;-79
2023/02/13 04:23:08;;;;;;;8.60;3.70;;;;;;;9.68;100.00;102327.88;2083889;28;20049;-79
2023/02/13 04:24:30;;;;;;;6.82;3.00;;;;;;;9.71;100.00;102341.22;2087138;28;20048;-79
2023/02/13 04:25:56;;;;;;;6.78;3.40;;;;;;;9.75;100.00;102343.16;2095019;28;20062;-78
2023/02/13 04:27:17;;;;;;;7.32;3.05;;;;;;;9.76;100.00;102337.94;2089641;28;20048;-79
2023/02/13 04:28:39;;;;;;;6.75;3.13;;;;;;;9.75;100.00;102345.78;2103418;28;20051;-79
2023/02/13 04:30:01;;;;;;;6.85;3.33;;;;;;;9.75;100.00;102348.44;2092066;28;20056;-79
2023/02/13 04:31:24;;;;;;;9.23;3.42;;;;;;;9.72;100.00;102349.19;2089381;28;20048;-78
2023/02/13 04:32:45;;;;;;;7.97;3.50;;;;;;;9.72;100.00;102361.47;2086107;28;20045;-78
2023/02/13 04:34:07;;;;;;;7.00;3.72;;;;;;;9.69;100.00;102349.06;2095071;28;20037;-79
2023/02/13 04:35:28;;;;;;;7.07;3.88;;;;;;;9.68;100.00;102356.88;2089689;28;20052;-79
2023/02/13 04:36:51;;;;;;;9.27;4.22;;;;;;;9.65;100.00;102362.03;2103280;28;20060;-79
2023/02/13 04:38:14;;;;;;;15.90;4.93;;;;;;;9.60;100.00;102352.19;2092082;28;20420;-80
2023/02/13 04:39:37;;;;;;;7.35;4.10;;;;;;;9.58;100.00;102345.06;2103573;28;20044;-79
2023/02/13 04:40:58;;;;;;;9.15;3.70;;;;;;;9.55;100.00;102351.06;2090914;28;20080;-78
2023/02/13 04:42:20;;;;;;;6.72;3.88;;;;;;;9.56;100.00;102359.88;2086565;28;20506;-80
2023/02/13 04:43:42;;;;;;;6.90;3.40;;;;;;;9.53;100.00;102357.09;2089245;28;20428;-79
2023/02/13 04:45:04;;;;;;;11.63;4.38;;;;;;;9.52;100.00;102361.47;2088231;28;20067;-79
2023/02/13 04:46:26;;;;;;;9.32;4.50;;;;;;;9.50;100.00;102354.34;2103589;28;20706;-79
2023/02/13 04:47:51;;;;;;;10.25;4.10;;;;;;;9.49;100.00;102360.44;2091669;28;20509;-79
2023/02/13 04:49:13;;;;;;;8.57;3.60;;;;;;;9.48;100.00;102349.00;2089212;28;20518;-79
2023/02/13 04:50:36;;;;;;;8.48;3.90;;;;;;;9.48;100.00;102362.16;2103453;28;20043;-79
2023/02/13 04:51:58;;;;;;;9.20;4.05;;;;;;;9.47;100.00;102355.09;2082356;28;20045;-79
2023/02/13 04:53:22;;;;;;;10.50;3.90;;;;;;;9.48;100.00;102358.63;2099425;28;20036;-79
2023/02/13 04:54:44;;;;;;;10.95;3.67;;;;;;;9.45;100.00;102353.22;2092070;28;20452;-79
2023/02/13 04:56:06;;;;;;;11.68;3.50;;;;;;;9.44;100.00;102361.97;2094671;28;20053;-79
2023/02/13 04:57:28;;;;;;;13.10;4.05;;;;;;;9.42;100.00;102364.53;2088625;28;20049;-78
2023/02/13 04:58:50;;;;;;;9.18;3.25;;;;;;;9.42;100.00;102367.16;2103220;28;20040;-79
2023/02/13 05:00:13;;;;;;;10.90;4.05;;;;;;;9.40;100.00;102358.28;2090831;28;20053;-79
2023/02/13 05:01:34;;;;;;;9.75;3.78;;;;;;;9.37;100.00;102365.16;2102990;28;20044;-79
2023/02/13 05:03:04;;;;;;;7.93;3.65;;;;;;;9.37;100.00;102367.78;2083830;28;20159;-79
2023/02/13 05:04:27;;;;;;;6.95;3.28;;;;;;;9.36;100.00;102372.16;2085961;28;20052;-78
2023/02/13 05:05:49;;;;;;;7.43;3.42;;;;;;;9.38;100.00;102366.97;2094754;28;20048;-79
2023/02/13 05:07:11;;;;;;;8.88;4.28;;;;;;;9.38;100.00;102373.13;2087657;28;20049;-80
2023/02/13 05:08:36;;;;;;;9.25;3.80;;;;;;;9.39;100.00;102376.66;2078092;28;20049;-79
2023/02/13 05:09:58;;;;;;;8.05;3.70;;;;;;;9.38;100.00;102377.50;2086469;28;20045;-79
2023/02/13 05:11:20;;;;;;;7.00;3.60;;;;;;;9.37;100.00;102378.34;2086491;28;20080;-79
2023/02/13 05:12:42;;;;;;;9.23;3.85;;;;;;;9.33;100.00;102377.25;2102993;28;20051;-79
2023/02/13 05:14:04;;;;;;;9.18;4.15;;;;;;;9.32;100.00;102380.72;2091488;28;20063;-79
2023/02/13 05:15:26;;;;;;;8.88;3.55;;;;;;;9.36;100.00;102371.25;2103243;28;20094;-78
2023/02/13 05:16:49;;;;;;;10.23;4.30;;;;;;;9.40;100.00;102376.72;2083697;28;20059;-79
2023/02/13 05:18:11;;;;;;;7.57;3.65;;;;;;;9.44;100.00;102376.06;2100584;28;20078;-79
2023/02/13 05:19:33;;;;;;;8.23;4.10;;;;;;;9.47;100.00;102376.19;2087980;28;20044;-79
2023/02/13 05:24:16;;;;;;;11.00;3.75;;;;;;;9.49;100.00;102376.25;2089860;28;20033;-79
2023/02/13 05:25:40;;;;;;;9.32;3.75;;;;;;;9.51;100.00;102375.50;2088816;28;20130;-79
2023/02/13 05:27:03;;;;;;;7.60;3.22;;;;;;;9.53;100.00;102381.72;2083070;28;20505;-79
2023/02/13 05:30:05;;;;;;;11.38;4.50;;;;;;;9.58;100.00;102379.31;2080950;28;20049;-79
2023/02/13 05:31:27;;;;;;;7.15;3.92;;;;;;;9.57;100.00;102383.69;2078108;28;20053;-79
2023/02/13 05:32:50;;;;;;;11.57;3.90;;;;;;;9.58;100.00;102385.47;2094713;28;20076;-79
2023/02/13 05:34:11;;;;;;;10.60;4.60;;;;;;;9.58;100.00;102385.47;2083324;28;20057;-79
2023/02/13 05:35:34;;;;;;;8.80;4.10;;;;;;;9.57;100.00;102383.69;2080552;28;20045;-79
2023/02/13 05:36:55;;;;;;;8.43;3.85;;;;;;;9.60;100.00;102388.19;2080730;28;20084;-80
2023/02/13 05:38:17;;;;;;;8.90;4.65;;;;;;;9.62;100.00;102390.91;2078077;28;20490;-79
2023/02/13 05:39:41;;;;;;;9.43;4.40;;;;;;;9.67;100.00;102395.53;2092361;28;20542;-79
2023/02/13 05:41:03;;;;;;;7.07;4.03;;;;;;;9.72;100.00;102387.81;2080738;28;20048;-79
2023/02/13 05:42:26;;;;;;;9.88;3.80;;;;;;;9.79;100.00;102390.81;2094501;28;20166;-77
2023/02/13 05:43:48;;;;;;;9.23;3.92;;;;;;;9.86;100.00;102402.53;2083694;28;20425;-79
2023/02/13 05:45:10;;;;;;;8.48;3.97;;;;;;;9.91;100.00;102401.03;2086083;28;20231;-78
2023/02/13 05:46:32;;;;;;;9.85;3.70;;;;;;;9.93;100.00;102399.34;2086537;28;20049;-80
2023/02/13 05:47:54;;;;;;;10.57;5.22;;;;;;;9.95;100.00;102398.59;2088841;28;20044;-80
2023/02/13 05:49:16;;;;;;;8.57;3.90;;;;;;;10.00;100.00;102406.69;2086133;28;20056;-79
2023/02/13 05:50:38;;;;;;;36.70;15.85;;;;;;;10.09;100.00;102411.50;2102739;28;20473;-79
2023/02/13 05:52:00;;;;;;;24.08;10.18;;;;;;;10.14;100.00;102410.84;2091480;28;20058;-79
2023/02/13 05:53:21;;;;;;;11.35;6.10;;;;;;;10.24;100.00;102409.56;2101950;28;20056;-79
2023/02/13 05:54:45;;;;;;;10.35;5.20;;;;;;;10.33;100.00;102410.84;2091367;28;20037;-79
2023/02/13 05:56:06;;;;;;;9.05;4.38;;;;;;;10.40;100.00;102409.38;2088260;28;20049;-79
2023/02/13 05:57:29;;;;;;;11.35;4.07;;;;;;;10.47;100.00;102416.72;2102534;28;20423;-79
2023/02/13 05:58:52;;;;;;;8.32;4.47;;;;;;;10.55;100.00;102417.06;2090064;28;20041;-79
2023/02/13 06:00:16;;;;;;;10.13;4.57;;;;;;;10.58;100.00;102420.69;2102480;28;20055;-79
2023/02/13 06:01:38;;;;;;;10.70;4.40;;;;;;;10.64;100.00;102415.69;2081749;28;20045;-79
2023/02/13 06:02:59;;;;;;;10.88;4.75;;;;;;;10.75;100.00;102416.16;2077513;28;20037;-79
2023/02/13 06:04:21;;;;;;;9.27;5.32;;;;;;;10.90;100.00;102413.22;2088559;28;20196;-79
2023/02/13 06:05:43;;;;;;;11.32;5.22;;;;;;;11.06;100.00;102420.94;2088236;28;20041;-79
2023/02/13 06:07:05;;;;;;;12.63;5.05;;;;;;;11.17;100.00;102422.25;2080459;28;20103;-79
2023/02/13 06:08:28;;;;;;;23.80;7.75;;;;;;;11.27;100.00;102426.19;2094100;28;20643;-79
2023/02/13 06:09:52;;;;;;;21.85;11.43;;;;;;;11.29;100.00;102422.72;2091135;28;20049;-79
2023/02/13 06:11:14;;;;;;;11.73;6.50;;;;;;;11.35;100.00;102416.81;2101983;28;20047;-79
2023/02/13 06:12:37;;;;;;;11.57;6.10;;;;;;;11.49;100.00;102418.22;2083050;28;20827;-79
2023/02/13 06:13:59;;;;;;;12.48;6.50;;;;;;;11.67;100.00;102415.38;2087892;28;20041;-79
2023/02/13 06:15:21;;;;;;;17.70;8.85;;;;;;;11.86;100.00;102410.88;2085777;28;20090;-79
2023/02/13 06:16:43;;;;;;;10.38;5.53;;;;;;;12.07;100.00;102418.69;2102559;28;20048;-79
2023/02/13 06:18:05;;;;;;;9.43;3.97;;;;;;;12.29;100.00;102412.41;2091079;28;20813;-79
2023/02/13 06:19:28;;;;;;;9.18;4.35;;;;;;;12.46;100.00;102415.66;2085790;28;20094;-79
2023/02/13 06:20:50;;;;;;;10.55;4.80;;;;;;;12.57;100.00;102420.47;2085981;28;20057;-79
2023/02/13 06:22:13;;;;;;;12.65;5.70;;;;;;;12.61;100.00;102417.06;2102474;28;20048;-79
2023/02/13 06:23:35;;;;;;;11.85;6.55;;;;;;;12.60;100.00;102419.69;2090744;28;20443;-79
2023/02/13 06:24:59;;;;;;;13.70;8.27;;;;;;;12.52;100.00;102422.06;2086046;28;20053;-79
2023/02/13 06:26:21;;;;;;;12.02;6.50;;;;;;;12.43;100.00;102415.53;2086288;28;20037;-79
2023/02/13 06:27:42;;;;;;;10.43;7.20;;;;;;;12.34;100.00;102419.66;2077380;28;20053;-79
2023/02/13 06:29:05;;;;;;;12.43;6.90;;;;;;;12.35;100.00;102423.19;2099260;28;20059;-79
2023/02/13 06:30:26;;;;;;;10.23;6.35;;;;;;;12.31;100.00;102421.31;2083069;28;20088;-79
2023/02/13 06:31:48;;;;;;;10.88;6.72;;;;;;;12.27;100.00;102422.06;2073622;28;20135;-79
2023/02/13 06:33:10;;;;;;;10.93;6.78;;;;;;;12.24;100.00;102430.78;2077632;28;20497;-79
2023/02/13 06:34:33;;;;;;;12.75;6.63;;;;;;;12.20;100.00;102434.19;2102997;28;20584;-78
2023/02/13 06:35:55;;;;;;;10.65;6.50;;;;;;;12.14;100.00;102436.56;2082936;28;20057;-79
2023/02/13 06:37:16;;;;;;;9.82;5.55;;;;;;;12.17;100.00;102439.34;2094017;28;20045;-78
2023/02/13 06:38:39;;;;;;;10.00;5.88;;;;;;;12.21;100.00;102440.34;2090050;28;20033;-80
2023/02/13 06:40:02;;;;;;;13.82;5.70;;;;;;;12.18;100.00;102441.16;2085493;28;20060;-79
2023/02/13 06:41:25;;;;;;;10.80;6.80;;;;;;;12.18;100.00;102446.44;2086101;28;20045;-79
2023/02/13 06:42:47;;;;;;;12.85;8.18;;;;;;;12.22;100.00;102447.44;2093675;28;20037;-79
2023/02/13 06:44:09;;;;;;;12.50;7.13;;;;;;;12.32;100.00;102444.31;2088190;28;20044;-79
2023/02/13 06:45:32;;;;;;;13.93;6.25;;;;;;;12.50;100.00;102444.94;2085819;28;20437;-79
2023/02/13 06:46:54;;;;;;;10.05;5.78;;;;;;;12.70;100.00;102438.56;2088289;28;20517;-79
2023/02/13 06:48:16;;;;;;;13.32;7.28;;;;;;;12.85;100.00;102439.94;2085337;28;20444;-79
2023/02/13 06:49:39;;;;;;;12.88;6.63;;;;;;;13.07;100.00;102434.47;2077703;28;20038;-79
2023/02/13 06:51:01;;;;;;;12.57;5.97;;;;;;;13.30;100.00;102437.91;2085761;28;20401;-79
2023/02/13 06:52:23;;;;;;;10.15;6.00;;;;;;;13.51;100.00;102434.16;2101529;28;20129;-78
2023/02/13 06:53:46;;;;;;;13.00;6.50;;;;;;;13.69;100.00;102432.91;2090816;28;20064;-77
2023/02/13 06:55:08;;;;;;;9.77;4.53;;;;;;;13.90;100.00;102442.41;2085669;28;20052;-79
2023/02/13 06:56:31;;;;;;;9.98;4.53;;;;;;;14.07;100.00;102436.66;2085607;28;20049;-79
2023/02/13 06:57:54;;;;;;;7.85;5.05;;;;;;;14.27;100.00;102435.47;2084674;28;20049;-78
2023/02/13 06:59:16;;;;;;;16.38;5.30;;;;;;;14.55;100.00;102446.03;2085362;28;20500;-79
2023/02/13 07:00:38;;;;;;;12.45;5.55;;;;;;;14.77;100.00;102431.50;2077339;28;20108;-79
2023/02/13 07:01:59;;;;;;;10.27;5.10;;;;;;;14.81;100.00;102430.75;2091138;28;20059;-79
2023/02/13 07:03:22;;;;;;;10.50;5.55;;;;;;;14.70;99.42;102430.44;2080562;28;20041;-79
2023/02/13 07:04:44;;;;;;;9.57;4.30;;;;;;;14.65;99.98;102436.50;2085639;28;20152;-79
2023/02/13 07:06:07;;;;;;;9.38;4.78;;;;;;;14.59;100.00;102423.06;2096285;28;20045;-79
2023/02/13 07:07:32;;;;;;;9.82;4.40;;;;;;;14.44;99.97;102425.34;2082489;28;20100;-80
2023/02/13 07:08:55;;;;;;;10.45;5.20;;;;;;;14.26;100.00;102426.59;2094017;28;20733;-78
2023/02/13 07:10:19;;;;;;;12.73;5.38;;;;;;;14.10;100.00;102434.13;2079051;28;20075;-79
2023/02/13 07:11:41;;;;;;;12.85;6.00;;;;;;;13.95;100.00;102432.81;2083269;28;20045;-79
2023/02/13 07:13:03;;;;;;;10.07;5.07;;;;;;;13.84;100.00;102442.25;2087927;28;20049;-79
2023/02/13 07:14:26;;;;;;;10.90;5.00;;;;;;;13.77;100.00;102437.59;2085659;28;20037;-79